sensor_id;sensor_type;location;lat;lon;timestamp;pressure;altitude;pressure_sealevel;temperature;humidity
13029;BME280;6581;42.662;23.402;2023-01-30T00:01:02;95635.88;;;-0.08;99.47
13029;BME280;6581;42.662;23.402;2023-01-30T00:03:30;95626.13;;;0.03;99.57
13029;BME280;6581;42.662;23.402;2023-01-30T00:05:58;95636.53;;;0.03;99.38
13029;BME280;6581;42.662;23.402;2023-01-30T00:08:26;95622.94;;;0.06;99.14
13029;BME280;6581;42.662;23.402;2023-01-30T00:10:53;95623.78;;;0.01;98.73
13029;BME280;6581;42.662;23.402;2023-01-30T00:13:20;95626.53;;;0.10;98.79
13029;BME280;6581;42.662;23.402;2023-01-30T00:15:47;95628.59;;;-0.06;98.06
13029;BME280;6581;42.662;23.402;2023-01-30T00:18:16;95616.03;;;-0.04;99.50
13029;BME280;6581;42.662;23.402;2023-01-30T00:20:43;95629.63;;;-0.07;99.88
13029;BME280;6581;42.662;23.402;2023-01-30T00:23:10;95623.59;;;-0.03;99.74
13029;BME280;6581;42.662;23.402;2023-01-30T00:26:01;95635.63;;;-0.07;99.92
13029;BME280;6581;42.662;23.402;2023-01-30T00:28:28;95631.47;;;-0.08;99.99
13029;BME280;6581;42.662;23.402;2023-01-30T00:30:56;95622.31;;;-0.05;100.00
13029;BME280;6581;42.662;23.402;2023-01-30T00:33:27;95627.69;;;0.04;100.00
13029;BME280;6581;42.662;23.402;2023-01-30T00:35:55;95624.44;;;-0.07;100.00
13029;BME280;6581;42.662;23.402;2023-01-30T00:38:47;95619.28;;;-0.31;100.00
13029;BME280;6581;42.662;23.402;2023-01-30T00:41:16;95615.75;;;-0.21;100.00
13029;BME280;6581;42.662;23.402;2023-01-30T00:43:45;95602.31;;;-0.47;100.00
13029;BME280;6581;42.662;23.402;2023-01-30T00:46:32;95601.69;;;-0.39;100.00
13029;BME280;6581;42.662;23.402;2023-01-30T00:49:19;95604.94;;;-0.28;100.00
13029;BME280;6581;42.662;23.402;2023-01-30T00:52:00;95607.09;;;-0.35;100.00
13029;BME280;6581;42.662;23.402;2023-01-30T00:54:27;95615.34;;;-0.28;100.00
13029;BME280;6581;42.662;23.402;2023-01-30T00:56:57;95587.47;;;-0.47;100.00
13029;BME280;6581;42.662;23.402;2023-01-30T00:59:27;95605.63;;;-0.23;100.00
13029;BME280;6581;42.662;23.402;2023-01-30T01:01:54;95605.72;;;-0.28;100.00
13029;BME280;6581;42.662;23.402;2023-01-30T01:04:24;95604.22;;;-0.34;100.00
13029;BME280;6581;42.662;23.402;2023-01-30T01:06:53;95588.09;;;-0.36;100.00
13029;BME280;6581;42.662;23.402;2023-01-30T01:09:26;95613.38;;;-0.18;100.00
13029;BME280;6581;42.662;23.402;2023-01-30T01:12:19;95606.56;;;-0.32;100.00
13029;BME280;6581;42.662;23.402;2023-01-30T01:14:46;95604.44;;;-0.30;100.00
13029;BME280;6581;42.662;23.402;2023-01-30T01:17:14;95607.44;;;-0.42;100.00
13029;BME280;6581;42.662;23.402;2023-01-30T01:19:42;95611.03;;;-0.38;100.00
13029;BME280;6581;42.662;23.402;2023-01-30T01:22:09;95599.59;;;-0.37;100.00
13029;BME280;6581;42.662;23.402;2023-01-30T01:24:36;95598.75;;;-0.32;100.00
13029;BME280;6581;42.662;23.402;2023-01-30T01:27:03;95589.22;;;-0.42;100.00
13029;BME280;6581;42.662;23.402;2023-01-30T01:29:31;95592.81;;;-0.38;100.00
13029;BME280;6581;42.662;23.402;2023-01-30T01:31:58;95586.56;;;-0.37;100.00
13029;BME280;6581;42.662;23.402;2023-01-30T01:34:25;95596.63;;;-0.30;100.00
13029;BME280;6581;42.662;23.402;2023-01-30T01:36:53;95587.56;;;-0.33;100.00
13029;BME280;6581;42.662;23.402;2023-01-30T01:39:21;95585.38;;;-0.26;100.00
13029;BME280;6581;42.662;23.402;2023-01-30T01:41:49;95572.72;;;-0.32;100.00
13029;BME280;6581;42.662;23.402;2023-01-30T01:44:15;95587.09;;;-0.40;100.00
13029;BME280;6581;42.662;23.402;2023-01-30T01:46:45;95590.75;;;-0.41;100.00
13029;BME280;6581;42.662;23.402;2023-01-30T01:49:17;95589.00;;;-0.46;100.00
13029;BME280;6581;42.662;23.402;2023-01-30T01:51:49;95587.16;;;-0.45;100.00
13029;BME280;6581;42.662;23.402;2023-01-30T01:54:48;95592.09;;;-0.43;100.00
13029;BME280;6581;42.662;23.402;2023-01-30T01:57:19;95584.25;;;-0.38;100.00
13029;BME280;6581;42.662;23.402;2023-01-30T01:59:52;95590.09;;;-0.28;100.00
13029;BME280;6581;42.662;23.402;2023-01-30T02:02:25;95582.69;;;-0.21;100.00
13029;BME280;6581;42.662;23.402;2023-01-30T02:04:54;95593.38;;;-0.22;100.00
13029;BME280;6581;42.662;23.402;2023-01-30T02:07:34;95592.19;;;-0.30;100.00
13029;BME280;6581;42.662;23.402;2023-01-30T02:10:06;95585.63;;;-0.27;100.00
13029;BME280;6581;42.662;23.402;2023-01-30T02:12:34;95593.63;;;-0.19;100.00
13029;BME280;6581;42.662;23.402;2023-01-30T02:15:03;95589.44;;;-0.20;100.00
13029;BME280;6581;42.662;23.402;2023-01-30T02:17:31;95589.94;;;-0.18;100.00
13029;BME280;6581;42.662;23.402;2023-01-30T02:20:04;95584.25;;;-0.20;100.00
13029;BME280;6581;42.662;23.402;2023-01-30T02:26:22;95584.25;;;-0.38;100.00
13029;BME280;6581;42.662;23.402;2023-01-30T02:29:42;95579.59;;;-0.41;100.00
13029;BME280;6581;42.662;23.402;2023-01-30T02:32:20;95589.50;;;-0.43;100.00
13029;BME280;6581;42.662;23.402;2023-01-30T02:34:58;95587.16;;;-0.45;100.00
13029;BME280;6581;42.662;23.402;2023-01-30T02:37:39;95582.25;;;-0.47;100.00
13029;BME280;6581;42.662;23.402;2023-01-30T02:40:20;95580.25;;;-0.55;100.00
13029;BME280;6581;42.662;23.402;2023-01-30T02:42:53;95572.53;;;-0.60;100.00
13029;BME280;6581;42.662;23.402;2023-01-30T02:45:31;95568.09;;;-0.59;100.00
13029;BME280;6581;42.662;23.402;2023-01-30T02:48:02;95572.31;;;-0.63;100.00
13029;BME280;6581;42.662;23.402;2023-01-30T02:50:34;95571.19;;;-0.57;100.00
13029;BME280;6581;42.662;23.402;2023-01-30T02:53:04;95565.66;;;-0.51;100.00
13029;BME280;6581;42.662;23.402;2023-01-30T02:55:32;95567.91;;;-0.44;100.00
13029;BME280;6581;42.662;23.402;2023-01-30T02:58:01;95564.88;;;-0.51;100.00
13029;BME280;6581;42.662;23.402;2023-01-30T03:03:53;95574.72;;;-0.48;100.00
13029;BME280;6581;42.662;23.402;2023-01-30T03:06:43;95577.97;;;-0.37;100.00
13029;BME280;6581;42.662;23.402;2023-01-30T03:09:24;95561.84;;;-0.39;100.00
13029;BME280;6581;42.662;23.402;2023-01-30T03:12:05;95568.88;;;-0.40;99.86
13029;BME280;6581;42.662;23.402;2023-01-30T03:14:44;95564.72;;;-0.41;100.00
13029;BME280;6581;42.662;23.402;2023-01-30T03:17:13;95563.16;;;-0.37;100.00
13029;BME280;6581;42.662;23.402;2023-01-30T03:22:34;95553.06;;;-0.43;100.00
13029;BME280;6581;42.662;23.402;2023-01-30T03:25:02;95546.31;;;-0.45;100.00
13029;BME280;6581;42.662;23.402;2023-01-30T03:27:30;95543.44;;;-0.43;100.00
13029;BME280;6581;42.662;23.402;2023-01-30T03:29:59;95542.72;;;-0.30;100.00
13029;BME280;6581;42.662;23.402;2023-01-30T03:32:26;95542.66;;;-0.43;99.68
13029;BME280;6581;42.662;23.402;2023-01-30T03:35:19;95536.75;;;-0.49;99.78
13029;BME280;6581;42.662;23.402;2023-01-30T03:37:47;95531.59;;;-0.54;100.00
13029;BME280;6581;42.662;23.402;2023-01-30T03:40:39;95530.69;;;-0.45;100.00
13029;BME280;6581;42.662;23.402;2023-01-30T03:43:06;95532.97;;;-0.38;100.00
13029;BME280;6581;42.662;23.402;2023-01-30T03:45:35;95528.16;;;-0.31;100.00
13029;BME280;6581;42.662;23.402;2023-01-30T03:48:02;95533.03;;;-0.24;100.00
13029;BME280;6581;42.662;23.402;2023-01-30T03:50:31;95529.84;;;-0.40;100.00
13029;BME280;6581;42.662;23.402;2023-01-30T03:52:59;95537.19;;;-0.42;100.00
13029;BME280;6581;42.662;23.402;2023-01-30T03:55:52;95527.25;;;-0.40;100.00
13029;BME280;6581;42.662;23.402;2023-01-30T03:58:24;95531.13;;;-0.37;100.00
13029;BME280;6581;42.662;23.402;2023-01-30T04:00:51;95530.28;;;-0.33;99.66
13029;BME280;6581;42.662;23.402;2023-01-30T04:03:18;95529.50;;;-0.33;100.00
13029;BME280;6581;42.662;23.402;2023-01-30T04:05:47;95524.94;;;-0.41;100.00
13029;BME280;6581;42.662;23.402;2023-01-30T04:08:14;95525.69;;;-0.41;99.62
13029;BME280;6581;42.662;23.402;2023-01-30T04:10:41;95520.72;;;-0.37;99.89
13029;BME280;6581;42.662;23.402;2023-01-30T04:13:08;95530.63;;;-0.39;99.62
13029;BME280;6581;42.662;23.402;2023-01-30T04:15:36;95524.09;;;-0.56;99.82
13029;BME280;6581;42.662;23.402;2023-01-30T04:18:21;95521.25;;;-0.59;100.00
13029;BME280;6581;42.662;23.402;2023-01-30T04:21:04;95522.94;;;-0.50;100.00
13029;BME280;6581;42.662;23.402;2023-01-30T04:23:36;95522.94;;;-0.50;99.71
13029;BME280;6581;42.662;23.402;2023-01-30T04:26:04;95521.44;;;-0.51;100.00
13029;BME280;6581;42.662;23.402;2023-01-30T04:28:34;95520.16;;;-0.53;100.00
13029;BME280;6581;42.662;23.402;2023-01-30T04:31:02;95525.00;;;-0.65;100.00
13029;BME280;6581;42.662;23.402;2023-01-30T04:33:38;95535.28;;;-0.55;100.00
13029;BME280;6581;42.662;23.402;2023-01-30T04:36:11;95526.75;;;-0.61;100.00
13029;BME280;6581;42.662;23.402;2023-01-30T04:38:40;95517.41;;;-0.62;100.00
13029;BME280;6581;42.662;23.402;2023-01-30T04:41:09;95516.06;;;-0.59;100.00
13029;BME280;6581;42.662;23.402;2023-01-30T04:43:39;95523.53;;;-0.53;100.00
13029;BME280;6581;42.662;23.402;2023-01-30T04:46:26;95515.91;;;-0.49;100.00
13029;BME280;6581;42.662;23.402;2023-01-30T04:48:58;95510.16;;;-0.46;100.00
13029;BME280;6581;42.662;23.402;2023-01-30T04:51:38;95518.81;;;-0.51;100.00
13029;BME280;6581;42.662;23.402;2023-01-30T04:54:05;95511.50;;;-0.49;100.00
13029;BME280;6581;42.662;23.402;2023-01-30T04:56:33;95505.38;;;-0.58;100.00
13029;BME280;6581;42.662;23.402;2023-01-30T04:59:00;95497.63;;;-0.63;100.00
13029;BME280;6581;42.662;23.402;2023-01-30T05:01:34;95500.09;;;-0.71;100.00
13029;BME280;6581;42.662;23.402;2023-01-30T05:04:03;95503.88;;;-0.64;100.00
13029;BME280;6581;42.662;23.402;2023-01-30T05:06:32;95502.50;;;-0.56;100.00
13029;BME280;6581;42.662;23.402;2023-01-30T05:09:00;95504.13;;;-0.60;100.00
13029;BME280;6581;42.662;23.402;2023-01-30T05:11:28;95499.91;;;-0.56;100.00
13029;BME280;6581;42.662;23.402;2023-01-30T05:13:55;95501.16;;;-0.54;100.00
13029;BME280;6581;42.662;23.402;2023-01-30T05:16:23;95505.28;;;-0.71;100.00
13029;BME280;6581;42.662;23.402;2023-01-30T05:18:51;95504.19;;;-0.65;100.00
13029;BME280;6581;42.662;23.402;2023-01-30T05:21:20;95507.84;;;-0.66;100.00
13029;BME280;6581;42.662;23.402;2023-01-30T05:23:49;95513.59;;;-0.69;100.00
13029;BME280;6581;42.662;23.402;2023-01-30T05:26:16;95512.78;;;-0.65;100.00
13029;BME280;6581;42.662;23.402;2023-01-30T05:28:43;95517.66;;;-0.63;100.00
13029;BME280;6581;42.662;23.402;2023-01-30T05:31:12;95507.78;;;-0.61;100.00
13029;BME280;6581;42.662;23.402;2023-01-30T05:33:40;95514.16;;;-0.54;100.00
13029;BME280;6581;42.662;23.402;2023-01-30T05:36:13;95518.13;;;-0.56;100.00
13029;BME280;6581;42.662;23.402;2023-01-30T05:38:41;95513.53;;;-0.64;100.00
13029;BME280;6581;42.662;23.402;2023-01-30T05:41:11;95500.88;;;-0.71;100.00
13029;BME280;6581;42.662;23.402;2023-01-30T05:43:38;95506.78;;;-0.65;100.00
13029;BME280;6581;42.662;23.402;2023-01-30T05:46:08;95507.47;;;-0.78;100.00
13029;BME280;6581;42.662;23.402;2023-01-30T05:48:36;95506.19;;;-0.81;100.00
13029;BME280;6581;42.662;23.402;2023-01-30T05:51:04;95516.03;;;-0.78;100.00
13029;BME280;6581;42.662;23.402;2023-01-30T05:53:32;95515.75;;;-0.76;100.00
13029;BME280;6581;42.662;23.402;2023-01-30T05:56:02;95515.22;;;-0.73;100.00
13029;BME280;6581;42.662;23.402;2023-01-30T05:58:31;95518.56;;;-0.73;100.00
13029;BME280;6581;42.662;23.402;2023-01-30T06:00:59;95519.16;;;-0.57;100.00
13029;BME280;6581;42.662;23.402;2023-01-30T06:03:27;95521.56;;;-0.61;100.00
13029;BME280;6581;42.662;23.402;2023-01-30T06:05:54;95522.41;;;-0.65;100.00
13029;BME280;6581;42.662;23.402;2023-01-30T06:08:47;95526.75;;;-0.61;100.00
13029;BME280;6581;42.662;23.402;2023-01-30T06:11:15;95518.44;;;-0.63;100.00
13029;BME280;6581;42.662;23.402;2023-01-30T06:13:44;95524.16;;;-0.61;100.00
13029;BME280;6581;42.662;23.402;2023-01-30T06:16:13;95514.66;;;-0.70;100.00
13029;BME280;6581;42.662;23.402;2023-01-30T06:18:42;95512.19;;;-0.62;100.00
13029;BME280;6581;42.662;23.402;2023-01-30T06:21:36;95508.75;;;-0.57;100.00
13029;BME280;6581;42.662;23.402;2023-01-30T06:24:04;95505.66;;;-0.59;100.00
13029;BME280;6581;42.662;23.402;2023-01-30T06:26:31;95504.53;;;-0.53;100.00
13029;BME280;6581;42.662;23.402;2023-01-30T06:29:00;95507.19;;;-0.58;100.00
13029;BME280;6581;42.662;23.402;2023-01-30T06:31:27;95507.63;;;-0.51;100.00
13029;BME280;6581;42.662;23.402;2023-01-30T06:33:54;95509.03;;;-0.59;100.00
13029;BME280;6581;42.662;23.402;2023-01-30T06:36:24;95502.84;;;-0.63;100.00
13029;BME280;6581;42.662;23.402;2023-01-30T06:38:51;95505.03;;;-0.51;100.00
13029;BME280;6581;42.662;23.402;2023-01-30T06:41:18;95505.09;;;-0.56;100.00
13029;BME280;6581;42.662;23.402;2023-01-30T06:43:45;95514.47;;;-0.55;100.00
13029;BME280;6581;42.662;23.402;2023-01-30T06:46:15;95514.53;;;-0.60;100.00
13029;BME280;6581;42.662;23.402;2023-01-30T06:48:42;95519.72;;;-0.60;100.00
13029;BME280;6581;42.662;23.402;2023-01-30T06:51:10;95524.06;;;-0.74;100.00
13029;BME280;6581;42.662;23.402;2023-01-30T06:53:37;95516.75;;;-0.72;100.00
13029;BME280;6581;42.662;23.402;2023-01-30T06:56:04;95512.53;;;-0.68;100.00
13029;BME280;6581;42.662;23.402;2023-01-30T06:58:55;95520.06;;;-0.67;100.00
13029;BME280;6581;42.662;23.402;2023-01-30T07:01:24;95527.50;;;-0.79;100.00
13029;BME280;6581;42.662;23.402;2023-01-30T07:03:51;95529.81;;;-0.77;100.00
13029;BME280;6581;42.662;23.402;2023-01-30T07:06:18;95528.50;;;-0.75;100.00
13029;BME280;6581;42.662;23.402;2023-01-30T07:08:45;95524.69;;;-0.64;100.00
13029;BME280;6581;42.662;23.402;2023-01-30T07:11:12;95536.47;;;-0.66;100.00
13029;BME280;6581;42.662;23.402;2023-01-30T07:13:39;95534.06;;;-0.63;100.00
13029;BME280;6581;42.662;23.402;2023-01-30T07:16:07;95531.31;;;-0.71;100.00
13029;BME280;6581;42.662;23.402;2023-01-30T07:18:35;95527.84;;;-0.85;100.00
13029;BME280;6581;42.662;23.402;2023-01-30T07:21:02;95529.28;;;-0.74;100.00
13029;BME280;6581;42.662;23.402;2023-01-30T07:23:29;95538.41;;;-0.77;100.00
13029;BME280;6581;42.662;23.402;2023-01-30T07:25:56;95538.41;;;-0.77;100.00
13029;BME280;6581;42.662;23.402;2023-01-30T07:28:24;95537.56;;;-0.72;100.00
13029;BME280;6581;42.662;23.402;2023-01-30T07:30:51;95543.84;;;-0.73;100.00
13029;BME280;6581;42.662;23.402;2023-01-30T07:33:18;95544.47;;;-0.63;100.00
13029;BME280;6581;42.662;23.402;2023-01-30T07:35:46;95547.97;;;-0.72;100.00
13029;BME280;6581;42.662;23.402;2023-01-30T07:38:13;95546.16;;;-0.72;100.00
13029;BME280;6581;42.662;23.402;2023-01-30T07:40:40;95551.16;;;-0.57;100.00
13029;BME280;6581;42.662;23.402;2023-01-30T07:43:10;95556.16;;;-0.60;100.00
13029;BME280;6581;42.662;23.402;2023-01-30T07:45:39;95548.00;;;-0.54;100.00
13029;BME280;6581;42.662;23.402;2023-01-30T07:48:07;95545.97;;;-0.57;100.00
13029;BME280;6581;42.662;23.402;2023-01-30T07:50:35;95543.28;;;-0.70;100.00
13029;BME280;6581;42.662;23.402;2023-01-30T07:53:04;95535.25;;;-0.74;100.00
13029;BME280;6581;42.662;23.402;2023-01-30T07:55:36;95533.56;;;-0.83;100.00
13029;BME280;6581;42.662;23.402;2023-01-30T07:58:03;95535.47;;;-0.70;100.00
13029;BME280;6581;42.662;23.402;2023-01-30T08:03:47;95524.63;;;-0.59;100.00
13029;BME280;6581;42.662;23.402;2023-01-30T08:06:15;95516.00;;;-0.54;100.00
13029;BME280;6581;42.662;23.402;2023-01-30T08:08:44;95518.13;;;-0.56;100.00
13029;BME280;6581;42.662;23.402;2023-01-30T08:11:11;95515.78;;;-0.39;100.00
13029;BME280;6581;42.662;23.402;2023-01-30T08:13:38;95517.53;;;-0.34;100.00
13029;BME280;6581;42.662;23.402;2023-01-30T08:16:06;95514.59;;;-0.28;100.00
13029;BME280;6581;42.662;23.402;2023-01-30T08:18:34;95516.91;;;-0.26;100.00
13029;BME280;6581;42.662;23.402;2023-01-30T08:21:02;95513.69;;;-0.37;100.00
13029;BME280;6581;42.662;23.402;2023-01-30T08:23:56;95521.63;;;-0.28;100.00
13029;BME280;6581;42.662;23.402;2023-01-30T08:26:23;95517.34;;;-0.19;100.00
13029;BME280;6581;42.662;23.402;2023-01-30T08:28:50;95518.19;;;-0.24;100.00
13029;BME280;6581;42.662;23.402;2023-01-30T08:31:17;95516.41;;;-0.10;100.00
13029;BME280;6581;42.662;23.402;2023-01-30T08:33:44;95511.53;;;0.03;100.00
13029;BME280;6581;42.662;23.402;2023-01-30T08:36:11;95509.19;;;0.01;99.89
13029;BME280;6581;42.662;23.402;2023-01-30T08:38:38;95509.06;;;-0.08;100.00
13029;BME280;6581;42.662;23.402;2023-01-30T08:41:07;95501.91;;;-0.16;100.00
13029;BME280;6581;42.662;23.402;2023-01-30T08:43:58;95501.19;;;-0.03;100.00
13029;BME280;6581;42.662;23.402;2023-01-30T08:46:25;95496.75;;;-0.02;99.74
13029;BME280;6581;42.662;23.402;2023-01-30T08:48:52;95485.16;;;-0.10;100.00
13029;BME280;6581;42.662;23.402;2023-01-30T08:51:19;95495.34;;;-0.13;99.37
13029;BME280;6581;42.662;23.402;2023-01-30T08:53:46;95487.34;;;-0.17;98.81
13029;BME280;6581;42.662;23.402;2023-01-30T08:56:14;95490.91;;;-0.13;99.27
13029;BME280;6581;42.662;23.402;2023-01-30T08:58:41;95483.66;;;0.03;98.75
13029;BME280;6581;42.662;23.402;2023-01-30T09:01:10;95485.75;;;0.01;97.89
13029;BME280;6581;42.662;23.402;2023-01-30T09:03:37;95487.91;;;0.13;98.28
13029;BME280;6581;42.662;23.402;2023-01-30T09:06:04;95482.63;;;0.18;98.21
13029;BME280;6581;42.662;23.402;2023-01-30T09:08:31;95477.78;;;0.11;97.35
13029;BME280;6581;42.662;23.402;2023-01-30T09:10:58;95470.69;;;-0.02;97.25
13029;BME280;6581;42.662;23.402;2023-01-30T09:13:27;95467.34;;;-0.21;96.98
13029;BME280;6581;42.662;23.402;2023-01-30T09:15:55;95474.31;;;-0.17;96.88
13029;BME280;6581;42.662;23.402;2023-01-30T09:18:22;95471.44;;;-0.15;96.97
13029;BME280;6581;42.662;23.402;2023-01-30T09:21:14;95461.22;;;-0.12;96.58
13029;BME280;6581;42.662;23.402;2023-01-30T09:23:41;95460.66;;;-0.09;96.36
13029;BME280;6581;42.662;23.402;2023-01-30T09:26:09;95463.97;;;-0.22;96.61
13029;BME280;6581;42.662;23.402;2023-01-30T09:28:37;95468.06;;;-0.16;96.29
13029;BME280;6581;42.662;23.402;2023-01-30T09:31:04;95474.91;;;-0.20;96.61
13029;BME280;6581;42.662;23.402;2023-01-30T09:33:31;95470.47;;;-0.19;96.19
13029;BME280;6581;42.662;23.402;2023-01-30T09:35:58;95466.31;;;-0.20;97.11
13029;BME280;6581;42.662;23.402;2023-01-30T09:38:26;95468.97;;;-0.07;96.88
13029;BME280;6581;42.662;23.402;2023-01-30T09:41:09;95459.75;;;-0.18;96.71
13029;BME280;6581;42.662;23.402;2023-01-30T09:43:57;95464.88;;;-0.13;96.56
13029;BME280;6581;42.662;23.402;2023-01-30T09:46:34;95455.09;;;-0.02;97.27
13029;BME280;6581;42.662;23.402;2023-01-30T09:49:17;95459.94;;;0.05;97.20
13029;BME280;6581;42.662;23.402;2023-01-30T09:51:57;95458.69;;;0.16;96.44
13029;BME280;6581;42.662;23.402;2023-01-30T09:54:29;95439.53;;;-0.07;95.65
13029;BME280;6581;42.662;23.402;2023-01-30T09:57:07;95449.19;;;-0.08;96.32
13029;BME280;6581;42.662;23.402;2023-01-30T09:59:46;95438.84;;;-0.13;97.12
13029;BME280;6581;42.662;23.402;2023-01-30T10:02:33;95439.63;;;-0.12;96.92
13029;BME280;6581;42.662;23.402;2023-01-30T10:05:03;95431.09;;;-0.18;96.97
13029;BME280;6581;42.662;23.402;2023-01-30T10:07:38;95429.19;;;-0.12;97.30
13029;BME280;6581;42.662;23.402;2023-01-30T10:10:15;95422.75;;;-0.15;97.58
13029;BME280;6581;42.662;23.402;2023-01-30T10:12:50;95421.59;;;0.05;98.17
13029;BME280;6581;42.662;23.402;2023-01-30T10:15:28;95412.19;;;0.09;97.55
13029;BME280;6581;42.662;23.402;2023-01-30T10:18:13;95406.66;;;0.11;97.13
13029;BME280;6581;42.662;23.402;2023-01-30T10:20:51;95397.72;;;0.17;97.42
13029;BME280;6581;42.662;23.402;2023-01-30T10:23:39;95395.31;;;0.34;97.43
13029;BME280;6581;42.662;23.402;2023-01-30T10:26:15;95396.25;;;0.24;95.81
13029;BME280;6581;42.662;23.402;2023-01-30T10:29:13;95393.28;;;0.17;95.69
13029;BME280;6581;42.662;23.402;2023-01-30T10:31:45;95396.34;;;0.06;95.39
13029;BME280;6581;42.662;23.402;2023-01-30T10:34:18;95385.63;;;-0.07;95.63
13029;BME280;6581;42.662;23.402;2023-01-30T10:36:51;95385.88;;;-0.22;95.31
13029;BME280;6581;42.662;23.402;2023-01-30T10:39:25;95376.31;;;-0.26;95.48
13029;BME280;6581;42.662;23.402;2023-01-30T10:42:00;95365.88;;;-0.40;94.70
13029;BME280;6581;42.662;23.402;2023-01-30T10:44:31;95366.00;;;-0.31;95.59
13029;BME280;6581;42.662;23.402;2023-01-30T10:47:21;95350.31;;;-0.13;95.96
13029;BME280;6581;42.662;23.402;2023-01-30T10:49:54;95351.38;;;-0.14;94.28
13029;BME280;6581;42.662;23.402;2023-01-30T10:52:31;95350.31;;;-0.13;94.61
13029;BME280;6581;42.662;23.402;2023-01-30T10:55:10;95336.91;;;-0.20;93.72
13029;BME280;6581;42.662;23.402;2023-01-30T10:57:52;95336.75;;;0.04;93.19
13029;BME280;6581;42.662;23.402;2023-01-30T11:00:28;95326.88;;;-0.13;93.54
13029;BME280;6581;42.662;23.402;2023-01-30T11:03:10;95324.00;;;-0.11;93.60
13029;BME280;6581;42.662;23.402;2023-01-30T11:05:44;95315.69;;;-0.13;92.95
13029;BME280;6581;42.662;23.402;2023-01-30T11:08:19;95299.31;;;0.00;92.47
13029;BME280;6581;42.662;23.402;2023-01-30T11:10:47;95305.19;;;0.06;92.08
13029;BME280;6581;42.662;23.402;2023-01-30T11:13:17;95290.91;;;0.17;92.40
13029;BME280;6581;42.662;23.402;2023-01-30T11:15:47;95294.56;;;0.29;91.54
13029;BME280;6581;42.662;23.402;2023-01-30T11:18:18;95292.09;;;0.47;92.02
13029;BME280;6581;42.662;23.402;2023-01-30T11:20:57;95293.47;;;0.44;90.37
13029;BME280;6581;42.662;23.402;2023-01-30T11:23:31;95277.69;;;0.27;89.85
13029;BME280;6581;42.662;23.402;2023-01-30T11:26:00;95273.53;;;0.26;90.45
13029;BME280;6581;42.662;23.402;2023-01-30T11:28:34;95269.53;;;0.42;90.92
13029;BME280;6581;42.662;23.402;2023-01-30T11:31:01;95260.84;;;0.47;89.21
13029;BME280;6581;42.662;23.402;2023-01-30T11:33:34;95252.38;;;0.77;90.30
13029;BME280;6581;42.662;23.402;2023-01-30T11:36:04;95260.13;;;0.91;88.98
13029;BME280;6581;42.662;23.402;2023-01-30T11:38:34;95250.97;;;1.02;88.27
13029;BME280;6581;42.662;23.402;2023-01-30T11:41:09;95241.75;;;0.96;87.54
13029;BME280;6581;42.662;23.402;2023-01-30T11:43:42;95238.13;;;0.83;87.59
13029;BME280;6581;42.662;23.402;2023-01-30T11:46:11;95236.81;;;0.72;87.29
13029;BME280;6581;42.662;23.402;2023-01-30T11:48:47;95227.69;;;0.83;87.01
13029;BME280;6581;42.662;23.402;2023-01-30T11:51:15;95221.34;;;0.98;87.73
13029;BME280;6581;42.662;23.402;2023-01-30T11:53:45;95214.84;;;0.86;87.32
13029;BME280;6581;42.662;23.402;2023-01-30T11:56:19;95201.16;;;0.81;88.46
13029;BME280;6581;42.662;23.402;2023-01-30T11:58:54;95200.72;;;0.87;88.64
13029;BME280;6581;42.662;23.402;2023-01-30T12:01:26;95204.41;;;0.86;88.37
13029;BME280;6581;42.662;23.402;2023-01-30T12:03:56;95192.19;;;0.73;87.34
13029;BME280;6581;42.662;23.402;2023-01-30T12:06:28;95194.63;;;0.92;88.44
13029;BME280;6581;42.662;23.402;2023-01-30T12:08:58;95187.59;;;1.01;87.36
13029;BME280;6581;42.662;23.402;2023-01-30T12:11:30;95182.72;;;1.00;85.94
13029;BME280;6581;42.662;23.402;2023-01-30T12:14:12;95181.84;;;1.13;86.13
13029;BME280;6581;42.662;23.402;2023-01-30T12:16:47;95180.25;;;1.03;85.67
13029;BME280;6581;42.662;23.402;2023-01-30T12:19:27;95171.53;;;1.08;86.93
13029;BME280;6581;42.662;23.402;2023-01-30T12:22:01;95168.38;;;0.88;86.54
13029;BME280;6581;42.662;23.402;2023-01-30T12:24:37;95159.22;;;1.00;87.47
13029;BME280;6581;42.662;23.402;2023-01-30T12:27:12;95160.03;;;1.09;86.17
13029;BME280;6581;42.662;23.402;2023-01-30T12:29:50;95160.38;;;1.16;85.41
13029;BME280;6581;42.662;23.402;2023-01-30T12:32:25;95152.38;;;1.12;84.57
13029;BME280;6581;42.662;23.402;2023-01-30T12:34:53;95146.19;;;1.00;84.15
13029;BME280;6581;42.662;23.402;2023-01-30T12:37:31;95146.59;;;0.93;85.94
13029;BME280;6581;42.662;23.402;2023-01-30T12:40:11;95147.09;;;0.95;84.82
13029;BME280;6581;42.662;23.402;2023-01-30T12:43:10;95136.78;;;0.90;84.47
13029;BME280;6581;42.662;23.402;2023-01-30T12:45:48;95136.66;;;0.95;84.93
13029;BME280;6581;42.662;23.402;2023-01-30T12:48:42;95142.44;;;0.92;84.51
13029;BME280;6581;42.662;23.402;2023-01-30T12:51:21;95128.03;;;0.86;85.03
13029;BME280;6581;42.662;23.402;2023-01-30T12:53:59;95125.63;;;0.67;84.84
13029;BME280;6581;42.662;23.402;2023-01-30T12:56:44;95118.50;;;0.81;85.27
13029;BME280;6581;42.662;23.402;2023-01-30T12:59:19;95116.69;;;0.91;84.95
13029;BME280;6581;42.662;23.402;2023-01-30T13:02:02;95114.97;;;0.86;84.82
13029;BME280;6581;42.662;23.402;2023-01-30T13:04:44;95104.69;;;0.81;86.33
13029;BME280;6581;42.662;23.402;2023-01-30T13:07:23;95109.94;;;0.89;84.88
13029;BME280;6581;42.662;23.402;2023-01-30T13:10:02;95114.03;;;0.82;85.60
13029;BME280;6581;42.662;23.402;2023-01-30T13:12:37;95110.22;;;0.88;85.82
13029;BME280;6581;42.662;23.402;2023-01-30T13:15:15;95108.91;;;0.99;86.28
13029;BME280;6581;42.662;23.402;2023-01-30T13:17:59;95105.00;;;0.88;85.00
13029;BME280;6581;42.662;23.402;2023-01-30T13:20:51;95097.97;;;0.88;86.22
13029;BME280;6581;42.662;23.402;2023-01-30T13:23:28;95087.38;;;0.85;85.23
13029;BME280;6581;42.662;23.402;2023-01-30T13:26:04;95088.59;;;0.87;86.87
13029;BME280;6581;42.662;23.402;2023-01-30T13:28:36;95088.91;;;0.86;85.57
13029;BME280;6581;42.662;23.402;2023-01-30T13:31:05;95085.00;;;0.75;85.89
13029;BME280;6581;42.662;23.402;2023-01-30T13:33:37;95083.09;;;0.89;86.23
13029;BME280;6581;42.662;23.402;2023-01-30T13:36:11;95080.97;;;1.00;85.78
13029;BME280;6581;42.662;23.402;2023-01-30T13:38:47;95078.72;;;0.76;84.53